Time;durP1;ratioP1;P1;durP2;ratioP2;P2;SDS_P1;SDS_P2;PMS_P1;PMS_P2;Temp;Humidity;BMP_temperature;BMP_pressure;BME280_temperature;BME280_humidity;BME280_pressure;Samples;Min_cycle;Max_cycle;Signal;HPM_P1;HPM_P2
2021/12/21 00:00:13;;;;;;;22.30;8.90;;;;;;;;;;4988198;28;96943;-74
2021/12/21 00:02:41;;;;;;;16.02;7.88;;;;;;;;;;4988115;28;97513;-74
2021/12/21 00:05:09;;;;;;;20.30;8.25;;;;;;;;;;4986988;28;95203;-74
2021/12/21 00:07:35;;;;;;;35.05;9.50;;;;;;;;;;4993796;28;96867;-74
2021/12/21 00:10:02;;;;;;;28.48;8.50;;;;;;;;;;4991091;28;95981;-73
2021/12/21 00:12:31;;;;;;;33.17;9.52;;;;;;;;;;4991438;28;96904;-76
2021/12/21 00:17:46;;;;;;;28.08;9.98;;;;;;;;;;4991468;28;95349;-76
2021/12/21 00:25:18;;;;;;;27.02;9.88;;;;;;;;;;4990894;28;119306;-76
2021/12/21 00:27:48;;;;;;;22.27;9.82;;;;;;;;;;4994980;28;97028;-76
2021/12/21 00:30:15;;;;;;;28.13;10.27;;;;;;;;;;4990952;28;95326;-75
2021/12/21 00:32:42;;;;;;;24.58;10.07;;;;;;;;;;4991368;28;96801;-74
2021/12/21 00:35:09;;;;;;;38.75;11.13;;;;;;;;;;4990835;28;97691;-74
2021/12/21 00:37:39;;;;;;;35.75;10.05;;;;;;;;;;4991079;28;95400;-75
2021/12/21 00:40:08;;;;;;;27.50;9.98;;;;;;;;;;4990816;28;96831;-74
2021/12/21 00:42:35;;;;;;;27.45;9.75;;;;;;;;;;4990791;28;97734;-75
2021/12/21 00:45:01;;;;;;;29.73;10.93;;;;;;;;;;4989894;28;95350;-75
2021/12/21 00:47:27;;;;;;;28.00;10.85;;;;;;;;;;4990085;28;96729;-75
2021/12/21 00:50:02;;;;;;;27.55;12.00;;;;;;;;;;4994219;28;97404;-75
2021/12/21 00:52:29;;;;;;;35.35;11.25;;;;;;;;;;4990271;28;96822;-76
2021/12/21 00:54:55;;;;;;;24.63;9.90;;;;;;;;;;4991141;28;97346;-74
2021/12/21 00:57:22;;;;;;;28.17;11.13;;;;;;;;;;4989270;28;95361;-75
2021/12/21 00:59:48;;;;;;;28.48;11.50;;;;;;;;;;4991149;28;96705;-75
2021/12/21 01:02:15;;;;;;;29.45;10.35;;;;;;;;;;4990094;28;97197;-75
2021/12/21 01:04:47;;;;;;;25.10;9.10;;;;;;;;;;4990798;28;95799;-75
2021/12/21 01:12:17;;;;;;;25.23;9.65;;;;;;;;;;4992478;28;95333;-75
2021/12/21 01:18:13;;;;;;;27.52;9.32;;;;;;;;;;4992541;28;96690;-74
2021/12/21 01:20:24;;;;;;;22.30;9.00;;;;;;;;;;4986293;28;96663;-76
2021/12/21 01:23:16;;;;;;;26.80;10.68;;;;;;;;;;4990263;28;97113;-75
2021/12/21 01:25:47;;;;;;;30.33;9.73;;;;;;;;;;4989688;28;95369;-75
2021/12/21 01:28:29;;;;;;;24.42;9.85;;;;;;;;;;4989329;28;96820;-75
2021/12/21 01:31:21;;;;;;;29.25;9.88;;;;;;;;;;4989969;28;96694;-74
2021/12/21 01:36:51;;;;;;;23.63;8.93;;;;;;;;;;4954758;28;97333;-74
2021/12/21 01:44:40;;;;;;;23.85;10.15;;;;;;;;;;4990531;28;97798;-73
2021/12/21 01:49:50;;;;;;;20.63;9.52;;;;;;;;;;4990303;28;96796;-76
2021/12/21 01:52:19;;;;;;;24.00;10.00;;;;;;;;;;4989045;28;97674;-82
2021/12/21 01:54:45;;;;;;;24.42;9.07;;;;;;;;;;4989955;28;95375;-77
2021/12/21 01:57:12;;;;;;;28.65;10.00;;;;;;;;;;4989770;28;96929;-76
2021/12/21 01:59:39;;;;;;;27.65;9.63;;;;;;;;;;4993180;28;97327;-77
2021/12/21 02:02:08;;;;;;;28.95;10.38;;;;;;;;;;4987735;28;96883;-74
2021/12/21 02:04:35;;;;;;;25.50;9.68;;;;;;;;;;4989704;28;97288;-75
2021/12/21 02:07:02;;;;;;;31.75;10.10;;;;;;;;;;4989585;28;95339;-74
2021/12/21 02:09:37;;;;;;;25.70;9.52;;;;;;;;;;4989208;28;97232;-75
2021/12/21 02:12:10;;;;;;;20.88;9.45;;;;;;;;;;4989517;28;97458;-75
2021/12/21 02:14:37;;;;;;;24.50;9.77;;;;;;;;;;4989873;28;95158;-75
2021/12/21 02:20:16;;;;;;;22.58;10.07;;;;;;;;;;4987988;28;97409;-74
2021/12/21 02:22:56;;;;;;;25.52;9.85;;;;;;;;;;4992234;28;95282;-76
2021/12/21 02:30:44;;;;;;;22.55;9.73;;;;;;;;;;4987729;28;96974;-74
2021/12/21 02:33:12;;;;;;;20.55;9.25;;;;;;;;;;4989093;28;97331;-75
2021/12/21 02:35:39;;;;;;;21.13;9.43;;;;;;;;;;4990107;28;95504;-76
2021/12/21 02:38:06;;;;;;;23.45;10.35;;;;;;;;;;4987639;28;96923;-75
2021/12/21 02:40:32;;;;;;;23.48;9.73;;;;;;;;;;4988053;28;96180;-77
2021/12/21 02:43:02;;;;;;;22.00;9.63;;;;;;;;;;4990576;28;95885;-76
2021/12/21 02:45:29;;;;;;;22.42;9.80;;;;;;;;;;4998168;28;97975;-76
2021/12/21 02:47:55;;;;;;;25.20;10.45;;;;;;;;;;4989559;28;95439;-75
2021/12/21 02:50:22;;;;;;;20.58;10.25;;;;;;;;;;4988691;28;97157;-76
2021/12/21 02:52:50;;;;;;;24.65;10.82;;;;;;;;;;4988622;28;97383;-76
2021/12/21 02:55:17;;;;;;;29.42;10.48;;;;;;;;;;4988783;28;95301;-76
2021/12/21 02:57:43;;;;;;;24.08;10.85;;;;;;;;;;4988720;28;96884;-76
2021/12/21 03:00:12;;;;;;;26.75;11.13;;;;;;;;;;4987255;28;96443;-76
2021/12/21 03:02:38;;;;;;;24.77;9.50;;;;;;;;;;4988653;28;95358;-76
2021/12/21 03:05:09;;;;;;;25.73;10.02;;;;;;;;;;4991630;28;96719;-76
2021/12/21 03:10:14;;;;;;;19.73;9.70;;;;;;;;;;4988946;28;96787;-77
2021/12/21 03:15:27;;;;;;;31.50;9.88;;;;;;;;;;4988836;28;95522;-76
2021/12/21 03:17:55;;;;;;;31.52;11.25;;;;;;;;;;4988353;28;96771;-77
2021/12/21 03:20:22;;;;;;;22.40;9.68;;;;;;;;;;4988631;28;97366;-75
2021/12/21 03:22:49;;;;;;;21.88;9.32;;;;;;;;;;4988786;28;95799;-76
2021/12/21 03:25:16;;;;;;;30.23;10.35;;;;;;;;;;4988777;28;96498;-75
2021/12/21 03:27:43;;;;;;;24.20;9.68;;;;;;;;;;4989963;28;97587;-77
2021/12/21 03:30:11;;;;;;;20.17;9.40;;;;;;;;;;4991020;28;98379;-77
2021/12/21 03:32:37;;;;;;;20.10;9.27;;;;;;;;;;5004906;28;97167;-77
2021/12/21 03:35:05;;;;;;;23.70;10.30;;;;;;;;;;4989209;28;95666;-76
2021/12/21 03:37:31;;;;;;;28.58;9.20;;;;;;;;;;4988124;28;96333;-75
2021/12/21 03:40:00;;;;;;;28.17;10.48;;;;;;;;;;4988366;28;97274;-75
2021/12/21 03:42:27;;;;;;;26.70;9.77;;;;;;;;;;4986565;28;97287;-76
2021/12/21 03:44:54;;;;;;;23.83;9.85;;;;;;;;;;4988232;28;96982;-77
2021/12/21 03:47:22;;;;;;;20.50;9.13;;;;;;;;;;4987476;28;97815;-76
2021/12/21 03:49:53;;;;;;;24.42;9.60;;;;;;;;;;4992293;28;95327;-75
2021/12/21 03:52:23;;;;;;;25.13;9.77;;;;;;;;;;4988106;28;97230;-76
2021/12/21 03:54:56;;;;;;;23.88;9.48;;;;;;;;;;4988487;28;95913;-75
2021/12/21 03:57:23;;;;;;;30.73;10.25;;;;;;;;;;4987648;28;95774;-74
2021/12/21 03:59:53;;;;;;;27.92;9.55;;;;;;;;;;4986450;28;97308;-74
2021/12/21 04:02:22;;;;;;;26.08;9.43;;;;;;;;;;4988016;28;96477;-75
2021/12/21 04:04:49;;;;;;;20.23;9.23;;;;;;;;;;4988561;28;96826;-74
2021/12/21 04:07:18;;;;;;;19.95;9.38;;;;;;;;;;4999532;28;97523;-75
2021/12/21 04:09:44;;;;;;;26.63;10.57;;;;;;;;;;4988347;28;95500;-75
2021/12/21 04:12:10;;;;;;;22.30;10.00;;;;;;;;;;4990513;28;95701;-73
2021/12/21 04:14:37;;;;;;;22.48;10.80;;;;;;;;;;4987647;28;95585;-75
2021/12/21 04:17:15;;;;;;;19.65;9.07;;;;;;;;;;4987551;28;97413;-74
2021/12/21 04:19:42;;;;;;;32.70;10.10;;;;;;;;;;4988026;28;97430;-75
2021/12/21 04:22:08;;;;;;;26.20;9.90;;;;;;;;;;4987027;28;95639;-75
2021/12/21 04:24:35;;;;;;;31.70;10.45;;;;;;;;;;4988303;28;97172;-75
2021/12/21 04:27:01;;;;;;;22.60;9.60;;;;;;;;;;4986116;28;97244;-75
2021/12/21 04:29:27;;;;;;;19.98;9.05;;;;;;;;;;4987101;28;95362;-74
2021/12/21 04:31:54;;;;;;;19.40;9.32;;;;;;;;;;4987627;28;96792;-76
2021/12/21 04:34:20;;;;;;;23.40;9.93;;;;;;;;;;4990699;28;96357;-76
2021/12/21 04:36:46;;;;;;;19.70;9.38;;;;;;;;;;4987546;28;97191;-76
2021/12/21 04:39:30;;;;;;;23.58;10.05;;;;;;;;;;4987574;28;97168;-75
2021/12/21 04:41:56;;;;;;;23.95;9.65;;;;;;;;;;4987614;28;95717;-75
2021/12/21 04:44:29;;;;;;;21.40;9.00;;;;;;;;;;4987808;28;96276;-74
2021/12/21 04:46:55;;;;;;;22.38;9.75;;;;;;;;;;4987154;28;97207;-76
2021/12/21 04:49:22;;;;;;;21.17;9.52;;;;;;;;;;4987045;28;95522;-77
2021/12/21 04:51:48;;;;;;;23.48;9.27;;;;;;;;;;4987818;28;96885;-76
2021/12/21 04:54:15;;;;;;;23.75;10.75;;;;;;;;;;4993151;28;97146;-76
2021/12/21 04:56:41;;;;;;;24.92;10.07;;;;;;;;;;4990051;28;95850;-76
2021/12/21 04:59:07;;;;;;;28.35;10.02;;;;;;;;;;4990141;28;97770;-74
2021/12/21 05:01:33;;;;;;;20.50;9.93;;;;;;;;;;4990953;28;95307;-76
2021/12/21 05:04:00;;;;;;;24.35;9.10;;;;;;;;;;4989546;28;96829;-75
2021/12/21 05:06:26;;;;;;;18.73;9.38;;;;;;;;;;4990058;28;97676;-77
2021/12/21 05:09:04;;;;;;;22.63;9.82;;;;;;;;;;4991045;28;96697;-77
2021/12/21 05:11:34;;;;;;;22.88;9.60;;;;;;;;;;4990712;28;96882;-76
2021/12/21 05:14:01;;;;;;;20.90;10.27;;;;;;;;;;4990637;28;97325;-75
2021/12/21 05:16:28;;;;;;;25.70;9.88;;;;;;;;;;4993326;28;95220;-76
2021/12/21 05:18:54;;;;;;;24.02;9.60;;;;;;;;;;4988815;28;98128;-75
2021/12/21 05:21:20;;;;;;;22.73;9.15;;;;;;;;;;5009989;28;95403;-76
2021/12/21 05:23:47;;;;;;;28.20;9.90;;;;;;;;;;4997392;28;96798;-78
2021/12/21 05:26:13;;;;;;;16.88;8.90;;;;;;;;;;4989647;28;96150;-76
2021/12/21 05:28:39;;;;;;;22.58;9.88;;;;;;;;;;4990254;28;95306;-76
2021/12/21 05:31:06;;;;;;;22.73;9.45;;;;;;;;;;4990003;28;96875;-77
2021/12/21 05:33:32;;;;;;;21.92;9.60;;;;;;;;;;4988541;28;97373;-76
2021/12/21 05:35:59;;;;;;;22.45;9.38;;;;;;;;;;4990305;28;95249;-77
2021/12/21 05:38:31;;;;;;;25.00;9.32;;;;;;;;;;4993842;28;96977;-77
2021/12/21 05:41:01;;;;;;;23.70;9.70;;;;;;;;;;4988119;28;96386;-78
2021/12/21 05:43:28;;;;;;;22.15;8.88;;;;;;;;;;4989295;28;97025;-77
2021/12/21 05:45:54;;;;;;;23.58;9.50;;;;;;;;;;4989743;28;97828;-77
2021/12/21 05:48:21;;;;;;;23.13;9.73;;;;;;;;;;4981922;28;95387;-77
2021/12/21 05:50:47;;;;;;;23.63;9.77;;;;;;;;;;5000388;28;96873;-78
2021/12/21 05:53:14;;;;;;;28.88;10.77;;;;;;;;;;5009514;28;97244;-75
2021/12/21 05:55:40;;;;;;;22.85;10.68;;;;;;;;;;4990789;28;95497;-77
2021/12/21 05:58:09;;;;;;;23.80;9.55;;;;;;;;;;4998689;28;96895;-75
2021/12/21 06:00:35;;;;;;;23.38;10.65;;;;;;;;;;4993945;28;97386;-75
2021/12/21 06:03:02;;;;;;;23.73;10.48;;;;;;;;;;4990061;28;96850;-76
2021/12/21 06:05:28;;;;;;;20.73;10.00;;;;;;;;;;4986287;28;97261;-77
2021/12/21 06:07:55;;;;;;;24.70;10.10;;;;;;;;;;4989093;28;95393;-76
2021/12/21 06:10:30;;;;;;;26.42;10.10;;;;;;;;;;4989345;28;96974;-76
2021/12/21 06:26:34;;;;;;;24.08;11.02;;;;;;;;;;4993961;28;97358;-75
2021/12/21 06:29:00;;;;;;;25.58;10.50;;;;;;;;;;4988712;28;95282;-76
2021/12/21 06:31:27;;;;;;;20.63;10.40;;;;;;;;;;4991584;28;96551;-75
2021/12/21 06:33:53;;;;;;;20.33;11.02;;;;;;;;;;4989320;28;97370;-75
2021/12/21 06:36:20;;;;;;;25.58;10.25;;;;;;;;;;4988596;28;96178;-77
2021/12/21 06:38:47;;;;;;;21.70;10.40;;;;;;;;;;4989137;28;96842;-76
2021/12/21 06:41:13;;;;;;;23.27;11.25;;;;;;;;;;4988712;28;97121;-77
2021/12/21 06:43:40;;;;;;;22.65;10.70;;;;;;;;;;4992123;28;96730;-77
2021/12/21 06:51:39;;;;;;;22.83;10.68;;;;;;;;;;4988808;28;96103;-77
2021/12/21 06:54:05;;;;;;;25.00;11.17;;;;;;;;;;4989105;28;97546;-76
2021/12/21 06:56:31;;;;;;;24.75;12.00;;;;;;;;;;4988668;28;95254;-77
2021/12/21 06:58:58;;;;;;;30.13;13.23;;;;;;;;;;4989645;28;97305;-78
2021/12/21 07:01:28;;;;;;;28.98;12.07;;;;;;;;;;4988346;28;97408;-78
2021/12/21 07:03:56;;;;;;;22.75;12.02;;;;;;;;;;4988659;28;96386;-78
2021/12/21 07:06:23;;;;;;;26.00;11.93;;;;;;;;;;4991838;28;96863;-77
2021/12/21 07:09:04;;;;;;;28.33;12.30;;;;;;;;;;4989200;28;95360;-77
2021/12/21 07:19:28;;;;;;;27.38;10.95;;;;;;;;;;4988336;28;97453;-76
2021/12/21 07:21:54;;;;;;;31.83;12.95;;;;;;;;;;4988433;28;96171;-76
2021/12/21 07:24:21;;;;;;;32.20;11.88;;;;;;;;;;4987994;28;95728;-76
2021/12/21 07:26:47;;;;;;;23.40;12.15;;;;;;;;;;4988271;28;97039;-77
2021/12/21 07:29:14;;;;;;;26.13;12.25;;;;;;;;;;4991154;28;97371;-76
2021/12/21 07:31:40;;;;;;;25.92;11.95;;;;;;;;;;4987503;28;95975;-77
2021/12/21 07:34:06;;;;;;;26.73;11.85;;;;;;;;;;4987008;28;97350;-76
2021/12/21 07:36:34;;;;;;;22.08;11.95;;;;;;;;;;4989126;28;95494;-76
2021/12/21 07:39:02;;;;;;;26.75;12.52;;;;;;;;;;4987150;28;97090;-75
2021/12/21 07:41:29;;;;;;;29.25;11.82;;;;;;;;;;4989615;28;96151;-75
2021/12/21 07:43:55;;;;;;;26.95;12.30;;;;;;;;;;4988317;28;96753;-77
2021/12/21 07:46:21;;;;;;;38.78;12.95;;;;;;;;;;4987400;28;96872;-76
2021/12/21 07:48:48;;;;;;;25.65;11.18;;;;;;;;;;4988516;28;97889;-75
2021/12/21 07:51:15;;;;;;;28.20;11.55;;;;;;;;;;4990246;28;96410;-76
2021/12/21 07:53:42;;;;;;;26.98;10.75;;;;;;;;;;4987237;28;96626;-75
2021/12/21 16:45:40;;;;;;;82.95;33.90;;;;;;;;;;5052079;27;1283584;-74
2021/12/21 16:48:07;;;;;;;84.63;37.63;;;;;;;;;;5075618;27;97745;-74
2021/12/21 16:50:34;;;;;;;88.68;38.30;;;;;;;;;;5076696;27;96547;-74
2021/12/21 16:53:00;;;;;;;81.97;39.00;;;;;;;;;;5079976;27;96822;-74
2021/12/21 16:55:26;;;;;;;84.75;41.55;;;;;;;;;;5070773;27;97273;-74
2021/12/21 16:57:53;;;;;;;95.78;41.72;;;;;;;;;;5072644;27;96366;-75
2021/12/21 17:00:20;;;;;;;91.85;43.13;;;;;;;;;;5071006;27;97159;-74
2021/12/21 17:02:47;;;;;;;96.35;43.90;;;;;;;;;;5074006;27;96871;-74
2021/12/21 17:05:14;;;;;;;85.95;43.00;;;;;;;;;;5076370;27;95596;-75
2021/12/21 17:07:41;;;;;;;77.97;37.45;;;;;;;;;;5073663;27;96246;-75
2021/12/21 17:10:07;;;;;;;70.47;31.98;;;;;;;;;;5076719;27;96011;-75
2021/12/21 17:12:35;;;;;;;65.60;31.05;;;;;;;;;;5078280;27;95915;-75
2021/12/21 17:15:03;;;;;;;72.30;33.45;;;;;;;;;;5080424;27;96066;-76
2021/12/21 17:17:29;;;;;;;51.28;27.95;;;;;;;;;;5077196;27;95570;-75
2021/12/21 17:19:56;;;;;;;59.45;29.95;;;;;;;;;;5074838;27;96712;-75
2021/12/21 17:22:22;;;;;;;67.55;35.30;;;;;;;;;;5070285;27;98169;-74
2021/12/21 17:24:49;;;;;;;59.85;30.85;;;;;;;;;;5074946;27;96183;-75
2021/12/21 17:27:16;;;;;;;60.63;29.88;;;;;;;;;;5076599;27;97232;-75
2021/12/21 17:29:43;;;;;;;56.35;28.95;;;;;;;;;;5066428;27;95661;-74
2021/12/21 17:32:11;;;;;;;58.88;27.25;;;;;;;;;;5064921;27;97185;-75
2021/12/21 17:34:37;;;;;;;53.10;27.45;;;;;;;;;;5070788;27;97272;-74
2021/12/21 17:37:04;;;;;;;51.83;25.35;;;;;;;;;;5084152;27;95324;-74
2021/12/21 17:39:30;;;;;;;51.83;26.13;;;;;;;;;;5084315;27;96784;-75
2021/12/21 17:41:57;;;;;;;47.70;25.52;;;;;;;;;;5084304;27;97606;-74
2021/12/21 17:44:24;;;;;;;49.38;25.42;;;;;;;;;;5071384;27;96150;-74
2021/12/21 17:46:50;;;;;;;50.78;26.73;;;;;;;;;;5072318;27;96931;-75
2021/12/21 17:49:16;;;;;;;52.97;26.10;;;;;;;;;;5082766;27;97303;-75
2021/12/21 17:51:43;;;;;;;54.95;26.92;;;;;;;;;;5076415;27;95335;-74
2021/12/21 17:54:09;;;;;;;51.35;27.65;;;;;;;;;;5073602;27;97203;-75
2021/12/21 17:56:35;;;;;;;70.68;34.90;;;;;;;;;;5068940;27;95684;-74
2021/12/21 17:59:02;;;;;;;67.07;34.75;;;;;;;;;;5065745;27;96911;-75
2021/12/21 18:01:29;;;;;;;58.35;29.98;;;;;;;;;;5061780;27;97627;-75
2021/12/21 18:03:55;;;;;;;97.93;47.88;;;;;;;;;;5056967;27;96091;-75
2021/12/21 18:06:22;;;;;;;120.28;57.42;;;;;;;;;;5057852;27;96841;-74
2021/12/21 18:08:48;;;;;;;117.72;58.10;;;;;;;;;;5066435;27;97775;-76
2021/12/21 18:11:18;;;;;;;102.97;53.85;;;;;;;;;;5068513;27;95710;-75
2021/12/21 18:13:49;;;;;;;105.22;55.17;;;;;;;;;;5052593;27;96329;-75
2021/12/21 18:16:16;;;;;;;486.95;282.77;;;;;;;;;;5066424;27;95561;-75
2021/12/21 18:18:46;;;;;;;589.05;379.35;;;;;;;;;;5050611;27;96754;-75
2021/12/21 18:21:14;;;;;;;295.37;144.73;;;;;;;;;;5061748;27;97258;-75
2021/12/21 18:23:41;;;;;;;176.75;81.50;;;;;;;;;;5067514;27;96232;-74
2021/12/21 18:26:08;;;;;;;127.32;64.13;;;;;;;;;;5062669;27;96668;-74
2021/12/21 18:28:34;;;;;;;140.70;69.80;;;;;;;;;;5065555;27;96581;-75
2021/12/21 18:31:01;;;;;;;181.48;83.47;;;;;;;;;;5065943;27;96033;-77
2021/12/21 18:33:29;;;;;;;156.45;75.35;;;;;;;;;;5067199;27;96747;-75
2021/12/21 18:35:58;;;;;;;245.65;118.53;;;;;;;;;;5056140;27;97407;-75
2021/12/21 18:38:31;;;;;;;173.38;80.07;;;;;;;;;;5068556;27;96629;-75
2021/12/21 18:40:57;;;;;;;102.18;49.92;;;;;;;;;;5069367;27;97325;-75
2021/12/21 18:43:26;;;;;;;97.80;47.22;;;;;;;;;;5069201;27;95446;-75
2021/12/21 18:45:52;;;;;;;96.38;46.72;;;;;;;;;;5069611;27;96855;-75
2021/12/21 18:48:19;;;;;;;100.60;47.63;;;;;;;;;;5053661;27;97354;-75
2021/12/21 18:50:45;;;;;;;77.35;37.97;;;;;;;;;;5066792;27;96140;-75
2021/12/21 18:53:12;;;;;;;71.03;36.03;;;;;;;;;;5062732;27;96866;-74
2021/12/21 18:55:40;;;;;;;60.42;30.10;;;;;;;;;;5061363;27;95714;-76
2021/12/21 18:58:07;;;;;;;48.05;25.55;;;;;;;;;;5067035;27;97936;-74
2021/12/21 19:00:37;;;;;;;44.20;23.67;;;;;;;;;;5068410;27;97296;-74
2021/12/21 19:03:08;;;;;;;39.70;21.48;;;;;;;;;;5048964;27;95643;-74
2021/12/21 19:05:37;;;;;;;42.75;23.77;;;;;;;;;;5054985;27;96693;-75
2021/12/21 19:08:04;;;;;;;42.47;22.05;;;;;;;;;;5065102;27;96362;-74
2021/12/21 19:10:31;;;;;;;40.40;22.65;;;;;;;;;;5067980;27;95783;-74
2021/12/21 19:12:57;;;;;;;54.65;25.75;;;;;;;;;;5055058;27;97151;-73
2021/12/21 19:15:24;;;;;;;49.15;25.20;;;;;;;;;;5053113;27;97114;-75
2021/12/21 19:17:54;;;;;;;50.00;26.00;;;;;;;;;;5052833;27;96832;-74
2021/12/21 19:20:23;;;;;;;51.92;26.08;;;;;;;;;;5054465;27;99968;-74
2021/12/21 19:22:59;;;;;;;45.05;25.20;;;;;;;;;;5055431;27;95312;-75
2021/12/21 19:25:28;;;;;;;47.90;25.92;;;;;;;;;;5039972;27;96945;-77
2021/12/21 19:27:55;;;;;;;49.30;27.63;;;;;;;;;;5059276;27;100243;-77
2021/12/21 19:30:22;;;;;;;52.85;27.25;;;;;;;;;;5063312;27;96635;-77
2021/12/21 19:32:50;;;;;;;45.58;24.63;;;;;;;;;;5061659;27;98536;-75
2021/12/21 19:35:17;;;;;;;47.92;24.58;;;;;;;;;;5060914;27;97840;-75
2021/12/21 19:37:43;;;;;;;46.25;26.42;;;;;;;;;;5055116;27;96028;-76
2021/12/21 19:40:10;;;;;;;48.88;25.60;;;;;;;;;;5059775;27;97377;-76
2021/12/21 19:42:36;;;;;;;49.15;26.05;;;;;;;;;;5054509;27;95559;-76
2021/12/21 19:45:04;;;;;;;52.30;27.25;;;;;;;;;;5063243;27;96979;-77
2021/12/21 19:47:33;;;;;;;53.33;28.90;;;;;;;;;;5052447;27;97567;-76
2021/12/21 19:50:01;;;;;;;66.45;33.58;;;;;;;;;;5054926;27;95656;-75
2021/12/21 19:52:27;;;;;;;69.78;33.63;;;;;;;;;;5065601;27;96954;-76
2021/12/21 19:54:56;;;;;;;53.20;29.77;;;;;;;;;;5064455;27;96217;-77
2021/12/21 19:57:22;;;;;;;66.13;34.03;;;;;;;;;;5051594;27;95259;-78
2021/12/21 19:59:49;;;;;;;72.57;37.00;;;;;;;;;;5054312;27;96758;-75
2021/12/21 20:02:20;;;;;;;68.80;36.92;;;;;;;;;;5052783;27;95309;-74
2021/12/21 20:04:47;;;;;;;85.38;41.83;;;;;;;;;;5065478;27;96781;-74
2021/12/21 20:07:13;;;;;;;71.90;38.20;;;;;;;;;;5065521;27;97691;-74
2021/12/21 20:09:40;;;;;;;72.53;35.72;;;;;;;;;;5056205;27;95752;-75
2021/12/21 20:12:09;;;;;;;68.05;33.47;;;;;;;;;;5057544;27;96764;-77
2021/12/21 20:14:43;;;;;;;59.40;31.58;;;;;;;;;;5067125;27;96177;-78
2021/12/21 20:17:09;;;;;;;67.35;33.42;;;;;;;;;;5055879;27;95226;-76
2021/12/21 20:19:37;;;;;;;66.93;34.95;;;;;;;;;;5063933;27;96831;-76
2021/12/21 20:22:04;;;;;;;69.95;35.42;;;;;;;;;;5068972;27;97211;-75
2021/12/21 20:24:32;;;;;;;81.93;38.72;;;;;;;;;;5065087;27;96706;-75
2021/12/21 20:26:59;;;;;;;83.32;40.35;;;;;;;;;;5061099;27;97495;-76
2021/12/21 20:29:26;;;;;;;78.53;38.55;;;;;;;;;;5066452;27;95623;-74
2021/12/21 20:31:52;;;;;;;74.05;38.40;;;;;;;;;;5068574;27;96827;-76
2021/12/21 20:34:20;;;;;;;76.05;38.42;;;;;;;;;;5069235;27;96177;-77
2021/12/21 20:36:46;;;;;;;66.15;34.33;;;;;;;;;;5069233;27;95427;-77
2021/12/21 20:39:13;;;;;;;60.88;30.05;;;;;;;;;;5068580;27;97369;-78
2021/12/21 20:41:39;;;;;;;60.05;29.63;;;;;;;;;;5069028;27;97784;-76
2021/12/21 20:44:06;;;;;;;56.60;29.60;;;;;;;;;;5071827;27;95400;-74
2021/12/21 20:46:33;;;;;;;53.50;29.85;;;;;;;;;;5067053;27;97469;-76
2021/12/21 20:49:02;;;;;;;58.80;30.80;;;;;;;;;;5069020;27;95817;-75
2021/12/21 20:51:28;;;;;;;60.75;30.42;;;;;;;;;;5069172;27;96732;-75
2021/12/21 20:53:54;;;;;;;56.22;30.17;;;;;;;;;;5068168;27;97327;-75
2021/12/21 20:56:21;;;;;;;59.42;31.75;;;;;;;;;;5068598;27;96718;-77
2021/12/21 20:58:48;;;;;;;61.90;29.27;;;;;;;;;;5069084;27;95742;-77
2021/12/21 21:01:14;;;;;;;59.25;29.20;;;;;;;;;;5068342;27;97201;-79
2021/12/21 21:03:41;;;;;;;50.08;28.90;;;;;;;;;;5072268;27;95390;-75
2021/12/21 21:06:08;;;;;;;57.47;30.30;;;;;;;;;;5068082;27;97314;-76
2021/12/21 21:08:35;;;;;;;58.33;29.33;;;;;;;;;;5068286;27;95252;-77
2021/12/21 21:11:02;;;;;;;61.22;31.70;;;;;;;;;;5069331;27;96818;-77
2021/12/21 21:13:29;;;;;;;57.10;30.63;;;;;;;;;;5068555;27;97870;-77
2021/12/21 21:15:55;;;;;;;57.75;29.80;;;;;;;;;;5068378;27;96710;-75
2021/12/21 21:18:22;;;;;;;57.03;28.65;;;;;;;;;;5068828;27;96759;-75
2021/12/21 21:20:49;;;;;;;54.55;29.13;;;;;;;;;;5067930;27;97404;-77
2021/12/21 21:23:16;;;;;;;53.92;27.85;;;;;;;;;;5068758;27;96277;-76
2021/12/21 21:25:42;;;;;;;52.17;27.55;;;;;;;;;;5072107;27;96753;-78
2021/12/21 21:28:09;;;;;;;48.90;27.15;;;;;;;;;;5067073;27;95483;-76
2021/12/21 21:30:35;;;;;;;53.35;27.13;;;;;;;;;;5069555;27;96515;-77
2021/12/21 21:33:02;;;;;;;56.75;28.35;;;;;;;;;;5071643;27;97296;-76
2021/12/21 21:35:29;;;;;;;52.22;27.27;;;;;;;;;;5071539;27;95282;-77
2021/12/21 21:37:55;;;;;;;53.92;26.85;;;;;;;;;;5072506;27;96789;-77
2021/12/21 21:40:21;;;;;;;47.67;25.90;;;;;;;;;;5072020;27;97316;-79
2021/12/21 21:42:48;;;;;;;49.55;27.88;;;;;;;;;;5071769;27;95335;-77
2021/12/21 21:45:14;;;;;;;57.55;27.00;;;;;;;;;;5071212;27;97182;-78
2021/12/21 21:47:41;;;;;;;64.03;28.85;;;;;;;;;;5074555;27;97347;-79
2021/12/21 21:50:08;;;;;;;54.97;27.20;;;;;;;;;;5071274;27;96244;-78
2021/12/21 21:52:34;;;;;;;54.20;28.02;;;;;;;;;;5072000;27;97294;-80
2021/12/21 21:55:01;;;;;;;54.88;27.73;;;;;;;;;;5072057;27;95295;-79
2021/12/21 21:57:28;;;;;;;55.65;28.33;;;;;;;;;;5070765;27;96889;-80
2021/12/21 21:59:54;;;;;;;57.95;30.58;;;;;;;;;;5071459;27;97307;-79
2021/12/21 22:02:20;;;;;;;58.90;31.27;;;;;;;;;;5071491;27;96406;-80
2021/12/21 22:04:47;;;;;;;65.38;33.90;;;;;;;;;;5071710;27;96883;-78
2021/12/21 22:07:14;;;;;;;66.88;33.60;;;;;;;;;;5070987;27;97336;-78
2021/12/21 22:09:40;;;;;;;60.72;30.92;;;;;;;;;;5074854;27;96008;-80
2021/12/21 22:12:07;;;;;;;60.28;32.75;;;;;;;;;;5070899;27;97157;-80
2021/12/21 22:14:34;;;;;;;63.90;32.00;;;;;;;;;;5071601;27;95233;-78
2021/12/21 22:17:00;;;;;;;68.22;32.88;;;;;;;;;;5071099;27;97094;-78
2021/12/21 22:19:26;;;;;;;79.03;34.33;;;;;;;;;;5071231;27;97589;-77
2021/12/21 22:21:53;;;;;;;64.90;33.60;;;;;;;;;;5071781;27;95368;-78
2021/12/21 22:24:20;;;;;;;63.00;33.03;;;;;;;;;;5071029;27;96885;-80
2021/12/21 22:26:46;;;;;;;64.13;33.95;;;;;;;;;;5069876;27;97293;-80
2021/12/21 22:29:12;;;;;;;64.25;33.90;;;;;;;;;;5070773;27;95712;-79
2021/12/21 22:31:38;;;;;;;64.47;33.22;;;;;;;;;;5073933;27;97189;-81
2021/12/21 22:34:05;;;;;;;69.82;36.10;;;;;;;;;;5069983;27;95540;-76
2021/12/21 22:36:33;;;;;;;72.38;36.75;;;;;;;;;;5071097;27;96787;-80
2021/12/21 22:39:00;;;;;;;104.32;49.72;;;;;;;;;;5070745;27;97284;-80
2021/12/21 22:41:26;;;;;;;94.25;46.28;;;;;;;;;;5069125;27;95631;-78
2021/12/21 22:43:53;;;;;;;87.63;43.42;;;;;;;;;;5070709;27;95724;-80
2021/12/21 22:46:20;;;;;;;96.25;46.30;;;;;;;;;;5070275;27;97171;-78
2021/12/21 22:48:46;;;;;;;110.35;49.13;;;;;;;;;;5071512;27;95491;-80
2021/12/21 22:51:13;;;;;;;105.80;52.40;;;;;;;;;;5070393;27;96910;-79
2021/12/21 22:53:39;;;;;;;100.18;47.90;;;;;;;;;;5073470;27;97381;-79
2021/12/21 22:56:06;;;;;;;96.13;46.22;;;;;;;;;;5070729;27;97087;-77
2021/12/21 22:58:32;;;;;;;80.38;39.88;;;;;;;;;;5070068;27;97358;-78
2021/12/21 23:01:03;;;;;;;79.43;41.08;;;;;;;;;;5070182;27;95367;-81
2021/12/21 23:03:31;;;;;;;81.72;41.88;;;;;;;;;;5070554;27;96841;-78
2021/12/21 23:05:57;;;;;;;83.90;42.00;;;;;;;;;;5070975;27;97180;-79
2021/12/21 23:08:24;;;;;;;84.70;42.80;;;;;;;;;;5069884;27;95161;-81
2021/12/21 23:10:50;;;;;;;81.80;40.65;;;;;;;;;;5070783;27;96720;-81
2021/12/21 23:13:16;;;;;;;76.75;40.67;;;;;;;;;;5071665;27;97561;-81
2021/12/21 23:15:48;;;;;;;73.13;37.45;;;;;;;;;;5070287;27;96775;-80
2021/12/21 23:18:15;;;;;;;78.47;37.42;;;;;;;;;;5065065;27;97367;-80
2021/12/21 23:20:42;;;;;;;79.30;38.80;;;;;;;;;;5070368;27;95956;-79
2021/12/21 23:23:09;;;;;;;76.72;39.03;;;;;;;;;;5070073;27;97207;-79
2021/12/21 23:25:35;;;;;;;75.55;38.47;;;;;;;;;;5070240;27;97710;-77
2021/12/21 23:28:02;;;;;;;73.25;38.45;;;;;;;;;;5070217;27;95150;-78
2021/12/21 23:30:28;;;;;;;79.03;39.90;;;;;;;;;;5058003;27;96977;-80
2021/12/21 23:32:54;;;;;;;76.10;39.47;;;;;;;;;;5070366;27;97361;-78
2021/12/21 23:35:21;;;;;;;76.43;38.63;;;;;;;;;;5072882;27;95652;-80
2021/12/21 23:37:48;;;;;;;75.70;38.13;;;;;;;;;;5070385;27;97247;-76
2021/12/21 23:40:15;;;;;;;78.68;38.67;;;;;;;;;;5069246;27;95390;-77
2021/12/21 23:42:42;;;;;;;71.97;36.90;;;;;;;;;;5069727;27;96880;-76
2021/12/21 23:45:09;;;;;;;66.50;35.20;;;;;;;;;;5069108;27;97767;-75
2021/12/21 23:47:35;;;;;;;70.68;35.45;;;;;;;;;;5070263;27;96211;-78
2021/12/21 23:50:02;;;;;;;58.42;32.70;;;;;;;;;;5069946;27;97242;-76
2021/12/21 23:52:31;;;;;;;67.53;32.92;;;;;;;;;;5051606;27;97257;-77
2021/12/21 23:54:57;;;;;;;60.78;32.17;;;;;;;;;;5069809;27;95704;-75
2021/12/21 23:57:23;;;;;;;66.95;33.28;;;;;;;;;;5071983;27;96854;-75
2021/12/21 23:59:50;;;;;;;63.17;32.65;;;;;;;;;;5070612;27;95476;-77
